sensor_id;sensor_type;location;lat;lon;timestamp;P1;durP1;ratioP1;P2;durP2;ratioP2
4500;SDS011;2263;54.654;9.410;2023-08-06T00:00:43;2.03;;;1.50;;
4500;SDS011;2263;54.654;9.410;2023-08-06T00:03:10;1.60;;;1.50;;
4500;SDS011;2263;54.654;9.410;2023-08-06T00:05:41;2.90;;;1.87;;
4500;SDS011;2263;54.654;9.410;2023-08-06T00:08:09;1.50;;;1.30;;
4500;SDS011;2263;54.654;9.410;2023-08-06T00:10:39;1.60;;;1.47;;
4500;SDS011;2263;54.654;9.410;2023-08-06T00:13:07;2.93;;;1.60;;
4500;SDS011;2263;54.654;9.410;2023-08-06T00:15:35;1.50;;;1.10;;
4500;SDS011;2263;54.654;9.410;2023-08-06T00:18:02;2.77;;;1.83;;
4500;SDS011;2263;54.654;9.410;2023-08-06T00:20:30;1.50;;;1.30;;
4500;SDS011;2263;54.654;9.410;2023-08-06T00:22:58;2.63;;;2.43;;
4500;SDS011;2263;54.654;9.410;2023-08-06T00:25:25;2.17;;;1.83;;
4500;SDS011;2263;54.654;9.410;2023-08-06T00:27:53;1.63;;;1.53;;
4500;SDS011;2263;54.654;9.410;2023-08-06T00:30:21;2.03;;;1.77;;
4500;SDS011;2263;54.654;9.410;2023-08-06T00:32:48;3.80;;;1.50;;
4500;SDS011;2263;54.654;9.410;2023-08-06T00:35:16;2.00;;;1.77;;
4500;SDS011;2263;54.654;9.410;2023-08-06T00:37:44;2.10;;;1.70;;
4500;SDS011;2263;54.654;9.410;2023-08-06T00:40:11;1.53;;;1.43;;
4500;SDS011;2263;54.654;9.410;2023-08-06T00:42:39;2.17;;;1.70;;
4500;SDS011;2263;54.654;9.410;2023-08-06T00:45:07;1.50;;;1.27;;
4500;SDS011;2263;54.654;9.410;2023-08-06T00:47:35;1.73;;;1.63;;
4500;SDS011;2263;54.654;9.410;2023-08-06T00:50:03;7.53;;;1.83;;
4500;SDS011;2263;54.654;9.410;2023-08-06T00:52:31;2.60;;;1.50;;
4500;SDS011;2263;54.654;9.410;2023-08-06T00:54:58;1.83;;;1.70;;
4500;SDS011;2263;54.654;9.410;2023-08-06T00:57:26;2.33;;;1.97;;
4500;SDS011;2263;54.654;9.410;2023-08-06T00:59:54;1.97;;;1.77;;
4500;SDS011;2263;54.654;9.410;2023-08-06T01:02:22;1.50;;;1.30;;
4500;SDS011;2263;54.654;9.410;2023-08-06T01:04:50;1.57;;;1.47;;
4500;SDS011;2263;54.654;9.410;2023-08-06T01:07:37;1.97;;;1.73;;
4500;SDS011;2263;54.654;9.410;2023-08-06T01:13:48;1.90;;;1.80;;
4500;SDS011;2263;54.654;9.410;2023-08-06T01:16:08;1.97;;;1.77;;
4500;SDS011;2263;54.654;9.410;2023-08-06T01:18:37;2.27;;;2.07;;
4500;SDS011;2263;54.654;9.410;2023-08-06T01:21:05;2.60;;;1.97;;
4500;SDS011;2263;54.654;9.410;2023-08-06T01:23:33;2.23;;;2.03;;
4500;SDS011;2263;54.654;9.410;2023-08-06T01:26:10;2.80;;;1.63;;
4500;SDS011;2263;54.654;9.410;2023-08-06T01:29:10;4.30;;;2.03;;
4500;SDS011;2263;54.654;9.410;2023-08-06T01:31:50;2.80;;;1.90;;
4500;SDS011;2263;54.654;9.410;2023-08-06T01:34:30;1.90;;;1.67;;
4500;SDS011;2263;54.654;9.410;2023-08-06T01:37:01;2.17;;;1.97;;
4500;SDS011;2263;54.654;9.410;2023-08-06T01:39:30;2.83;;;1.80;;
4500;SDS011;2263;54.654;9.410;2023-08-06T01:42:00;3.10;;;2.10;;
4500;SDS011;2263;54.654;9.410;2023-08-06T01:44:28;2.00;;;1.87;;
4500;SDS011;2263;54.654;9.410;2023-08-06T01:46:56;2.27;;;1.63;;
4500;SDS011;2263;54.654;9.410;2023-08-06T01:49:23;2.10;;;1.90;;
4500;SDS011;2263;54.654;9.410;2023-08-06T01:51:51;5.30;;;2.20;;
4500;SDS011;2263;54.654;9.410;2023-08-06T01:54:19;2.60;;;2.17;;
4500;SDS011;2263;54.654;9.410;2023-08-06T01:56:47;2.50;;;2.30;;
4500;SDS011;2263;54.654;9.410;2023-08-06T01:59:14;2.03;;;1.83;;
4500;SDS011;2263;54.654;9.410;2023-08-06T02:01:42;2.30;;;2.20;;
4500;SDS011;2263;54.654;9.410;2023-08-06T02:04:10;4.63;;;1.90;;
4500;SDS011;2263;54.654;9.410;2023-08-06T02:06:37;3.87;;;3.07;;
4500;SDS011;2263;54.654;9.410;2023-08-06T02:09:05;2.50;;;1.70;;
4500;SDS011;2263;54.654;9.410;2023-08-06T02:11:35;2.23;;;2.00;;
4500;SDS011;2263;54.654;9.410;2023-08-06T02:14:02;3.00;;;2.33;;
4500;SDS011;2263;54.654;9.410;2023-08-06T02:16:30;1.83;;;1.73;;
4500;SDS011;2263;54.654;9.410;2023-08-06T02:18:58;3.57;;;2.10;;
4500;SDS011;2263;54.654;9.410;2023-08-06T02:21:25;2.07;;;1.97;;
4500;SDS011;2263;54.654;9.410;2023-08-06T02:23:53;5.60;;;2.53;;
4500;SDS011;2263;54.654;9.410;2023-08-06T02:26:21;1.93;;;1.80;;
4500;SDS011;2263;54.654;9.410;2023-08-06T02:28:49;2.10;;;1.97;;
4500;SDS011;2263;54.654;9.410;2023-08-06T02:31:17;4.83;;;2.10;;
4500;SDS011;2263;54.654;9.410;2023-08-06T02:33:44;2.50;;;2.30;;
4500;SDS011;2263;54.654;9.410;2023-08-06T02:36:12;2.30;;;2.03;;
4500;SDS011;2263;54.654;9.410;2023-08-06T02:38:40;4.63;;;2.33;;
4500;SDS011;2263;54.654;9.410;2023-08-06T02:41:07;2.80;;;2.60;;
4500;SDS011;2263;54.654;9.410;2023-08-06T02:43:35;2.47;;;2.27;;
4500;SDS011;2263;54.654;9.410;2023-08-06T02:46:02;4.60;;;2.37;;
4500;SDS011;2263;54.654;9.410;2023-08-06T02:48:30;2.43;;;2.23;;
4500;SDS011;2263;54.654;9.410;2023-08-06T02:50:58;5.67;;;2.30;;
4500;SDS011;2263;54.654;9.410;2023-08-06T02:53:26;6.00;;;2.50;;
4500;SDS011;2263;54.654;9.410;2023-08-06T02:55:54;2.47;;;2.27;;
4500;SDS011;2263;54.654;9.410;2023-08-06T02:58:22;5.93;;;2.47;;
4500;SDS011;2263;54.654;9.410;2023-08-06T03:01:00;2.60;;;2.33;;
4500;SDS011;2263;54.654;9.410;2023-08-06T03:03:27;2.87;;;2.67;;
4500;SDS011;2263;54.654;9.410;2023-08-06T03:05:55;2.60;;;2.40;;
4500;SDS011;2263;54.654;9.410;2023-08-06T03:08:23;3.97;;;2.87;;
4500;SDS011;2263;54.654;9.410;2023-08-06T03:10:51;4.17;;;2.90;;
4500;SDS011;2263;54.654;9.410;2023-08-06T03:13:19;3.97;;;2.30;;
4500;SDS011;2263;54.654;9.410;2023-08-06T03:15:54;3.47;;;3.17;;
4500;SDS011;2263;54.654;9.410;2023-08-06T03:18:22;3.27;;;2.97;;
4500;SDS011;2263;54.654;9.410;2023-08-06T03:20:50;3.43;;;3.23;;
4500;SDS011;2263;54.654;9.410;2023-08-06T03:23:18;3.20;;;2.60;;
4500;SDS011;2263;54.654;9.410;2023-08-06T03:25:46;2.50;;;2.30;;
4500;SDS011;2263;54.654;9.410;2023-08-06T03:28:13;2.00;;;1.90;;
4500;SDS011;2263;54.654;9.410;2023-08-06T03:30:41;2.83;;;2.63;;
4500;SDS011;2263;54.654;9.410;2023-08-06T03:33:08;3.07;;;2.87;;
4500;SDS011;2263;54.654;9.410;2023-08-06T03:35:36;2.50;;;2.30;;
4500;SDS011;2263;54.654;9.410;2023-08-06T03:38:04;3.37;;;3.07;;
4500;SDS011;2263;54.654;9.410;2023-08-06T03:40:31;3.70;;;2.80;;
4500;SDS011;2263;54.654;9.410;2023-08-06T03:43:01;2.50;;;2.30;;
4500;SDS011;2263;54.654;9.410;2023-08-06T03:45:29;4.27;;;2.70;;
4500;SDS011;2263;54.654;9.410;2023-08-06T03:47:56;2.60;;;2.40;;
4500;SDS011;2263;54.654;9.410;2023-08-06T03:50:24;2.37;;;2.17;;
4500;SDS011;2263;54.654;9.410;2023-08-06T03:52:52;2.47;;;2.20;;
4500;SDS011;2263;54.654;9.410;2023-08-06T03:55:19;3.20;;;2.57;;
4500;SDS011;2263;54.654;9.410;2023-08-06T03:57:47;2.93;;;2.37;;
4500;SDS011;2263;54.654;9.410;2023-08-06T04:00:15;2.70;;;2.50;;
4500;SDS011;2263;54.654;9.410;2023-08-06T04:02:42;7.20;;;3.23;;
4500;SDS011;2263;54.654;9.410;2023-08-06T04:05:11;3.00;;;2.80;;
4500;SDS011;2263;54.654;9.410;2023-08-06T04:07:39;2.50;;;2.40;;
4500;SDS011;2263;54.654;9.410;2023-08-06T04:10:06;2.70;;;2.50;;
4500;SDS011;2263;54.654;9.410;2023-08-06T04:12:35;2.97;;;2.77;;
4500;SDS011;2263;54.654;9.410;2023-08-06T04:15:05;2.63;;;2.43;;
4500;SDS011;2263;54.654;9.410;2023-08-06T04:17:33;3.13;;;2.80;;
4500;SDS011;2263;54.654;9.410;2023-08-06T04:20:01;2.50;;;2.30;;
4500;SDS011;2263;54.654;9.410;2023-08-06T04:22:29;2.20;;;2.10;;
4500;SDS011;2263;54.654;9.410;2023-08-06T04:24:56;2.30;;;2.10;;
4500;SDS011;2263;54.654;9.410;2023-08-06T04:27:24;2.90;;;2.70;;
4500;SDS011;2263;54.654;9.410;2023-08-06T04:29:53;3.37;;;2.37;;
4500;SDS011;2263;54.654;9.410;2023-08-06T04:32:20;2.50;;;2.30;;
4500;SDS011;2263;54.654;9.410;2023-08-06T04:34:48;3.50;;;2.60;;
4500;SDS011;2263;54.654;9.410;2023-08-06T04:37:15;3.60;;;2.63;;
4500;SDS011;2263;54.654;9.410;2023-08-06T04:39:43;5.83;;;2.97;;
4500;SDS011;2263;54.654;9.410;2023-08-06T04:42:11;2.67;;;2.47;;
4500;SDS011;2263;54.654;9.410;2023-08-06T04:44:38;3.90;;;2.77;;
4500;SDS011;2263;54.654;9.410;2023-08-06T04:47:06;2.23;;;2.13;;
4500;SDS011;2263;54.654;9.410;2023-08-06T04:49:33;2.80;;;2.60;;
4500;SDS011;2263;54.654;9.410;2023-08-06T04:52:01;4.13;;;2.80;;
4500;SDS011;2263;54.654;9.410;2023-08-06T04:54:29;2.80;;;2.60;;
4500;SDS011;2263;54.654;9.410;2023-08-06T04:56:57;4.07;;;2.63;;
4500;SDS011;2263;54.654;9.410;2023-08-06T04:59:24;2.83;;;2.53;;
4500;SDS011;2263;54.654;9.410;2023-08-06T05:01:52;3.00;;;2.80;;
4500;SDS011;2263;54.654;9.410;2023-08-06T05:04:20;3.73;;;2.83;;
4500;SDS011;2263;54.654;9.410;2023-08-06T05:06:48;2.83;;;2.10;;
4500;SDS011;2263;54.654;9.410;2023-08-06T05:09:15;3.53;;;2.97;;
4500;SDS011;2263;54.654;9.410;2023-08-06T05:11:43;3.80;;;3.50;;
4500;SDS011;2263;54.654;9.410;2023-08-06T05:14:11;3.80;;;2.80;;
4500;SDS011;2263;54.654;9.410;2023-08-06T05:16:39;3.33;;;2.80;;
4500;SDS011;2263;54.654;9.410;2023-08-06T05:19:06;3.07;;;2.87;;
4500;SDS011;2263;54.654;9.410;2023-08-06T05:21:34;3.17;;;2.97;;
4500;SDS011;2263;54.654;9.410;2023-08-06T05:24:01;3.43;;;2.90;;
4500;SDS011;2263;54.654;9.410;2023-08-06T05:26:29;2.70;;;2.50;;
4500;SDS011;2263;54.654;9.410;2023-08-06T05:28:57;3.60;;;2.53;;
4500;SDS011;2263;54.654;9.410;2023-08-06T05:31:24;2.97;;;2.70;;
4500;SDS011;2263;54.654;9.410;2023-08-06T05:33:52;2.80;;;2.20;;
4500;SDS011;2263;54.654;9.410;2023-08-06T05:36:20;4.00;;;3.60;;
4500;SDS011;2263;54.654;9.410;2023-08-06T05:38:48;3.50;;;2.60;;
4500;SDS011;2263;54.654;9.410;2023-08-06T05:41:15;3.23;;;2.93;;
4500;SDS011;2263;54.654;9.410;2023-08-06T05:43:43;3.47;;;3.00;;
4500;SDS011;2263;54.654;9.410;2023-08-06T05:46:10;2.47;;;2.27;;
4500;SDS011;2263;54.654;9.410;2023-08-06T05:48:38;5.37;;;3.40;;
4500;SDS011;2263;54.654;9.410;2023-08-06T05:51:06;3.93;;;2.80;;
4500;SDS011;2263;54.654;9.410;2023-08-06T05:53:34;7.07;;;2.90;;
4500;SDS011;2263;54.654;9.410;2023-08-06T05:56:02;3.17;;;2.87;;
4500;SDS011;2263;54.654;9.410;2023-08-06T05:58:29;3.17;;;2.90;;
4500;SDS011;2263;54.654;9.410;2023-08-06T06:00:57;3.73;;;2.80;;
4500;SDS011;2263;54.654;9.410;2023-08-06T06:03:24;2.80;;;2.60;;
4500;SDS011;2263;54.654;9.410;2023-08-06T06:05:52;3.00;;;2.70;;
4500;SDS011;2263;54.654;9.410;2023-08-06T06:08:20;2.90;;;2.53;;
4500;SDS011;2263;54.654;9.410;2023-08-06T06:10:47;4.80;;;3.67;;
4500;SDS011;2263;54.654;9.410;2023-08-06T06:13:15;3.30;;;2.87;;
4500;SDS011;2263;54.654;9.410;2023-08-06T06:15:42;3.23;;;3.03;;
4500;SDS011;2263;54.654;9.410;2023-08-06T06:18:10;6.23;;;3.30;;
4500;SDS011;2263;54.654;9.410;2023-08-06T06:20:38;3.73;;;2.90;;
4500;SDS011;2263;54.654;9.410;2023-08-06T06:23:05;4.07;;;2.00;;
4500;SDS011;2263;54.654;9.410;2023-08-06T06:25:33;4.17;;;2.80;;
4500;SDS011;2263;54.654;9.410;2023-08-06T06:28:01;3.17;;;2.97;;
4500;SDS011;2263;54.654;9.410;2023-08-06T06:30:29;2.90;;;2.70;;
4500;SDS011;2263;54.654;9.410;2023-08-06T06:32:56;3.90;;;2.40;;
4500;SDS011;2263;54.654;9.410;2023-08-06T06:35:24;4.77;;;2.70;;
4500;SDS011;2263;54.654;9.410;2023-08-06T06:37:51;3.63;;;3.33;;
4500;SDS011;2263;54.654;9.410;2023-08-06T06:40:19;2.90;;;2.50;;
4500;SDS011;2263;54.654;9.410;2023-08-06T06:42:47;2.50;;;2.30;;
4500;SDS011;2263;54.654;9.410;2023-08-06T06:45:15;4.63;;;2.40;;
4500;SDS011;2263;54.654;9.410;2023-08-06T06:47:42;4.30;;;2.43;;
4500;SDS011;2263;54.654;9.410;2023-08-06T06:50:10;3.37;;;3.17;;
4500;SDS011;2263;54.654;9.410;2023-08-06T06:52:38;2.50;;;2.30;;
4500;SDS011;2263;54.654;9.410;2023-08-06T06:55:05;3.27;;;3.07;;
4500;SDS011;2263;54.654;9.410;2023-08-06T06:57:33;3.30;;;2.90;;
4500;SDS011;2263;54.654;9.410;2023-08-06T07:00:01;2.60;;;2.40;;
4500;SDS011;2263;54.654;9.410;2023-08-06T07:02:32;2.53;;;2.33;;
4500;SDS011;2263;54.654;9.410;2023-08-06T07:04:59;4.53;;;2.50;;
4500;SDS011;2263;54.654;9.410;2023-08-06T07:07:27;2.83;;;2.23;;
4500;SDS011;2263;54.654;9.410;2023-08-06T07:09:55;3.20;;;2.73;;
4500;SDS011;2263;54.654;9.410;2023-08-06T07:12:22;2.60;;;2.40;;
4500;SDS011;2263;54.654;9.410;2023-08-06T07:14:51;2.90;;;2.57;;
4500;SDS011;2263;54.654;9.410;2023-08-06T07:17:18;2.77;;;2.57;;
4500;SDS011;2263;54.654;9.410;2023-08-06T07:19:46;2.20;;;2.10;;
4500;SDS011;2263;54.654;9.410;2023-08-06T07:22:13;3.63;;;2.60;;
4500;SDS011;2263;54.654;9.410;2023-08-06T07:24:41;2.43;;;2.23;;
4500;SDS011;2263;54.654;9.410;2023-08-06T07:27:09;3.43;;;2.10;;
4500;SDS011;2263;54.654;9.410;2023-08-06T07:29:36;3.40;;;2.17;;
4500;SDS011;2263;54.654;9.410;2023-08-06T07:32:06;3.23;;;1.97;;
4500;SDS011;2263;54.654;9.410;2023-08-06T07:34:34;2.53;;;2.30;;
4500;SDS011;2263;54.654;9.410;2023-08-06T07:37:02;2.87;;;1.80;;
4500;SDS011;2263;54.654;9.410;2023-08-06T07:39:29;3.27;;;2.63;;
4500;SDS011;2263;54.654;9.410;2023-08-06T07:41:58;1.70;;;1.60;;
4500;SDS011;2263;54.654;9.410;2023-08-06T07:44:25;3.97;;;2.40;;
4500;SDS011;2263;54.654;9.410;2023-08-06T07:46:53;3.70;;;2.47;;
4500;SDS011;2263;54.654;9.410;2023-08-06T07:49:21;2.83;;;1.77;;
4500;SDS011;2263;54.654;9.410;2023-08-06T07:51:49;2.13;;;1.93;;
4500;SDS011;2263;54.654;9.410;2023-08-06T07:54:19;3.53;;;1.87;;
4500;SDS011;2263;54.654;9.410;2023-08-06T07:56:46;2.27;;;2.17;;
4500;SDS011;2263;54.654;9.410;2023-08-06T07:59:14;2.43;;;2.00;;
4500;SDS011;2263;54.654;9.410;2023-08-06T08:01:41;2.13;;;1.83;;
4500;SDS011;2263;54.654;9.410;2023-08-06T08:04:09;2.77;;;1.93;;
4500;SDS011;2263;54.654;9.410;2023-08-06T08:06:37;3.20;;;1.93;;
4500;SDS011;2263;54.654;9.410;2023-08-06T08:09:04;2.10;;;2.00;;
4500;SDS011;2263;54.654;9.410;2023-08-06T08:11:32;2.80;;;1.70;;
4500;SDS011;2263;54.654;9.410;2023-08-06T08:13:59;1.93;;;1.73;;
4500;SDS011;2263;54.654;9.410;2023-08-06T08:16:27;2.73;;;1.80;;
4500;SDS011;2263;54.654;9.410;2023-08-06T08:18:55;2.10;;;1.60;;
4500;SDS011;2263;54.654;9.410;2023-08-06T08:21:22;2.67;;;1.80;;
4500;SDS011;2263;54.654;9.410;2023-08-06T08:23:53;1.57;;;1.40;;
4500;SDS011;2263;54.654;9.410;2023-08-06T08:26:21;2.73;;;1.73;;
4500;SDS011;2263;54.654;9.410;2023-08-06T08:28:48;1.80;;;1.60;;
4500;SDS011;2263;54.654;9.410;2023-08-06T08:31:16;4.40;;;1.60;;
4500;SDS011;2263;54.654;9.410;2023-08-06T08:33:44;2.33;;;2.00;;
4500;SDS011;2263;54.654;9.410;2023-08-06T08:36:12;1.97;;;1.80;;
4500;SDS011;2263;54.654;9.410;2023-08-06T08:38:39;4.10;;;2.20;;
4500;SDS011;2263;54.654;9.410;2023-08-06T08:41:07;1.50;;;1.30;;
4500;SDS011;2263;54.654;9.410;2023-08-06T08:43:37;7.13;;;2.20;;
4500;SDS011;2263;54.654;9.410;2023-08-06T08:46:07;1.97;;;1.47;;
4500;SDS011;2263;54.654;9.410;2023-08-06T08:48:36;2.60;;;2.40;;
4500;SDS011;2263;54.654;9.410;2023-08-06T08:51:04;2.70;;;2.00;;
4500;SDS011;2263;54.654;9.410;2023-08-06T08:53:34;2.90;;;1.90;;
4500;SDS011;2263;54.654;9.410;2023-08-06T08:56:06;5.53;;;2.40;;
4500;SDS011;2263;54.654;9.410;2023-08-06T08:58:33;2.90;;;1.70;;
4500;SDS011;2263;54.654;9.410;2023-08-06T09:01:01;3.20;;;2.20;;
4500;SDS011;2263;54.654;9.410;2023-08-06T09:03:29;14.53;;;2.00;;
4500;SDS011;2263;54.654;9.410;2023-08-06T09:05:57;5.00;;;2.13;;
4500;SDS011;2263;54.654;9.410;2023-08-06T09:08:27;2.90;;;1.97;;
4500;SDS011;2263;54.654;9.410;2023-08-06T09:10:58;2.07;;;1.97;;
4500;SDS011;2263;54.654;9.410;2023-08-06T09:13:28;3.10;;;2.80;;
4500;SDS011;2263;54.654;9.410;2023-08-06T09:15:56;4.33;;;2.30;;
4500;SDS011;2263;54.654;9.410;2023-08-06T09:18:26;3.70;;;2.00;;
4500;SDS011;2263;54.654;9.410;2023-08-06T09:20:56;3.03;;;2.80;;
4500;SDS011;2263;54.654;9.410;2023-08-06T09:23:28;3.03;;;2.33;;
4500;SDS011;2263;54.654;9.410;2023-08-06T09:26:00;6.50;;;2.20;;
4500;SDS011;2263;54.654;9.410;2023-08-06T09:28:39;2.03;;;1.53;;
4500;SDS011;2263;54.654;9.410;2023-08-06T09:31:09;3.40;;;2.70;;
4500;SDS011;2263;54.654;9.410;2023-08-06T09:33:39;2.27;;;1.57;;
4500;SDS011;2263;54.654;9.410;2023-08-06T09:36:07;2.30;;;2.10;;
4500;SDS011;2263;54.654;9.410;2023-08-06T09:38:39;2.80;;;2.10;;
4500;SDS011;2263;54.654;9.410;2023-08-06T09:41:07;3.20;;;2.50;;
4500;SDS011;2263;54.654;9.410;2023-08-06T09:43:41;2.73;;;2.00;;
4500;SDS011;2263;54.654;9.410;2023-08-06T09:46:13;4.23;;;1.93;;
4500;SDS011;2263;54.654;9.410;2023-08-06T09:48:48;2.20;;;1.80;;
4500;SDS011;2263;54.654;9.410;2023-08-06T09:51:17;3.10;;;2.80;;
4500;SDS011;2263;54.654;9.410;2023-08-06T09:53:45;2.83;;;1.80;;
4500;SDS011;2263;54.654;9.410;2023-08-06T09:56:15;2.20;;;2.00;;
4500;SDS011;2263;54.654;9.410;2023-08-06T09:58:45;2.60;;;2.30;;
4500;SDS011;2263;54.654;9.410;2023-08-06T10:01:16;3.17;;;2.27;;
4500;SDS011;2263;54.654;9.410;2023-08-06T10:03:44;3.23;;;2.30;;
4500;SDS011;2263;54.654;9.410;2023-08-06T10:06:14;3.77;;;2.40;;
4500;SDS011;2263;54.654;9.410;2023-08-06T10:08:42;3.83;;;2.13;;
4500;SDS011;2263;54.654;9.410;2023-08-06T10:11:09;2.90;;;2.70;;
4500;SDS011;2263;54.654;9.410;2023-08-06T10:13:39;2.10;;;1.90;;
4500;SDS011;2263;54.654;9.410;2023-08-06T10:16:07;3.10;;;2.10;;
4500;SDS011;2263;54.654;9.410;2023-08-06T10:18:38;2.77;;;2.47;;
4500;SDS011;2263;54.654;9.410;2023-08-06T10:21:09;2.70;;;2.50;;
4500;SDS011;2263;54.654;9.410;2023-08-06T10:23:39;3.43;;;2.77;;
4500;SDS011;2263;54.654;9.410;2023-08-06T10:26:08;2.70;;;2.50;;
4500;SDS011;2263;54.654;9.410;2023-08-06T10:28:36;2.40;;;2.20;;
4500;SDS011;2263;54.654;9.410;2023-08-06T10:31:05;2.60;;;1.83;;
4500;SDS011;2263;54.654;9.410;2023-08-06T10:33:40;2.43;;;2.23;;
4500;SDS011;2263;54.654;9.410;2023-08-06T10:36:09;4.27;;;2.00;;
4500;SDS011;2263;54.654;9.410;2023-08-06T10:38:44;4.20;;;2.40;;
4500;SDS011;2263;54.654;9.410;2023-08-06T10:41:27;2.20;;;2.10;;
4500;SDS011;2263;54.654;9.410;2023-08-06T10:44:05;2.13;;;1.93;;
4500;SDS011;2263;54.654;9.410;2023-08-06T10:46:35;7.43;;;6.73;;
4500;SDS011;2263;54.654;9.410;2023-08-06T10:49:04;6.50;;;5.90;;
4500;SDS011;2263;54.654;9.410;2023-08-06T10:51:34;7.00;;;6.40;;
4500;SDS011;2263;54.654;9.410;2023-08-06T10:54:02;7.50;;;6.90;;
4500;SDS011;2263;54.654;9.410;2023-08-06T10:56:30;6.67;;;6.23;;
4500;SDS011;2263;54.654;9.410;2023-08-06T10:58:57;8.30;;;7.60;;
4500;SDS011;2263;54.654;9.410;2023-08-06T11:01:28;6.57;;;6.13;;
4500;SDS011;2263;54.654;9.410;2023-08-06T11:04:00;9.30;;;6.60;;
4500;SDS011;2263;54.654;9.410;2023-08-06T11:06:29;7.80;;;6.97;;
4500;SDS011;2263;54.654;9.410;2023-08-06T11:08:57;6.47;;;6.03;;
4500;SDS011;2263;54.654;9.410;2023-08-06T11:11:24;5.60;;;5.00;;
4500;SDS011;2263;54.654;9.410;2023-08-06T11:13:52;6.17;;;5.60;;
4500;SDS011;2263;54.654;9.410;2023-08-06T11:16:21;5.80;;;5.50;;
4500;SDS011;2263;54.654;9.410;2023-08-06T11:18:53;5.27;;;4.77;;
4500;SDS011;2263;54.654;9.410;2023-08-06T11:21:23;5.43;;;5.10;;
4500;SDS011;2263;54.654;9.410;2023-08-06T11:23:53;4.57;;;4.17;;
4500;SDS011;2263;54.654;9.410;2023-08-06T11:26:22;3.53;;;3.33;;
4500;SDS011;2263;54.654;9.410;2023-08-06T11:28:50;4.90;;;4.20;;
4500;SDS011;2263;54.654;9.410;2023-08-06T11:31:19;5.53;;;4.57;;
4500;SDS011;2263;54.654;9.410;2023-08-06T11:33:51;6.13;;;4.20;;
4500;SDS011;2263;54.654;9.410;2023-08-06T11:36:31;7.53;;;3.87;;
4500;SDS011;2263;54.654;9.410;2023-08-06T11:39:07;3.70;;;3.40;;
4500;SDS011;2263;54.654;9.410;2023-08-06T11:41:36;4.23;;;3.80;;
4500;SDS011;2263;54.654;9.410;2023-08-06T11:44:04;3.30;;;3.00;;
4500;SDS011;2263;54.654;9.410;2023-08-06T11:47:15;3.80;;;3.47;;
4500;SDS011;2263;54.654;9.410;2023-08-06T11:52:20;2.80;;;2.60;;
4500;SDS011;2263;54.654;9.410;2023-08-06T11:57:34;3.40;;;3.20;;
4500;SDS011;2263;54.654;9.410;2023-08-06T12:02:35;4.27;;;2.73;;
4500;SDS011;2263;54.654;9.410;2023-08-06T12:07:52;2.67;;;2.47;;
4500;SDS011;2263;54.654;9.410;2023-08-06T12:10:24;2.73;;;2.53;;
4500;SDS011;2263;54.654;9.410;2023-08-06T12:12:53;4.03;;;2.70;;
4500;SDS011;2263;54.654;9.410;2023-08-06T12:15:21;3.10;;;2.80;;
4500;SDS011;2263;54.654;9.410;2023-08-06T12:17:50;3.90;;;2.07;;
4500;SDS011;2263;54.654;9.410;2023-08-06T12:20:18;4.33;;;2.40;;
4500;SDS011;2263;54.654;9.410;2023-08-06T12:22:46;4.53;;;2.30;;
4500;SDS011;2263;54.654;9.410;2023-08-06T12:25:13;2.57;;;2.17;;
4500;SDS011;2263;54.654;9.410;2023-08-06T12:27:42;2.47;;;2.27;;
4500;SDS011;2263;54.654;9.410;2023-08-06T12:30:11;2.60;;;2.40;;
4500;SDS011;2263;54.654;9.410;2023-08-06T12:32:40;2.50;;;2.30;;
4500;SDS011;2263;54.654;9.410;2023-08-06T12:35:08;2.53;;;1.70;;
4500;SDS011;2263;54.654;9.410;2023-08-06T12:37:36;2.03;;;1.93;;
4500;SDS011;2263;54.654;9.410;2023-08-06T12:40:05;2.47;;;2.30;;
4500;SDS011;2263;54.654;9.410;2023-08-06T12:42:53;3.00;;;2.30;;
4500;SDS011;2263;54.654;9.410;2023-08-06T12:45:21;2.60;;;1.60;;
4500;SDS011;2263;54.654;9.410;2023-08-06T12:47:49;2.40;;;2.20;;
4500;SDS011;2263;54.654;9.410;2023-08-06T12:50:17;2.80;;;2.60;;
4500;SDS011;2263;54.654;9.410;2023-08-06T12:52:45;3.03;;;2.20;;
4500;SDS011;2263;54.654;9.410;2023-08-06T12:55:13;2.87;;;2.60;;
4500;SDS011;2263;54.654;9.410;2023-08-06T12:57:40;4.07;;;2.03;;
4500;SDS011;2263;54.654;9.410;2023-08-06T13:00:25;2.67;;;2.47;;
4500;SDS011;2263;54.654;9.410;2023-08-06T13:02:53;4.00;;;2.37;;
4500;SDS011;2263;54.654;9.410;2023-08-06T13:05:21;2.80;;;2.60;;
4500;SDS011;2263;54.654;9.410;2023-08-06T13:07:49;2.83;;;1.97;;
4500;SDS011;2263;54.654;9.410;2023-08-06T13:10:17;2.20;;;2.10;;
4500;SDS011;2263;54.654;9.410;2023-08-06T13:12:45;2.73;;;2.20;;
4500;SDS011;2263;54.654;9.410;2023-08-06T13:15:12;2.37;;;2.17;;
4500;SDS011;2263;54.654;9.410;2023-08-06T13:17:41;2.50;;;2.30;;
4500;SDS011;2263;54.654;9.410;2023-08-06T13:20:09;2.30;;;2.10;;
4500;SDS011;2263;54.654;9.410;2023-08-06T13:22:37;4.20;;;2.10;;
4500;SDS011;2263;54.654;9.410;2023-08-06T13:25:05;2.33;;;2.10;;
4500;SDS011;2263;54.654;9.410;2023-08-06T13:27:33;3.17;;;2.83;;
4500;SDS011;2263;54.654;9.410;2023-08-06T13:30:01;10.73;;;2.07;;
4500;SDS011;2263;54.654;9.410;2023-08-06T13:32:30;2.10;;;1.90;;
4500;SDS011;2263;54.654;9.410;2023-08-06T13:34:59;2.67;;;2.47;;
4500;SDS011;2263;54.654;9.410;2023-08-06T13:37:27;3.23;;;3.03;;
4500;SDS011;2263;54.654;9.410;2023-08-06T13:39:55;2.17;;;2.00;;
4500;SDS011;2263;54.654;9.410;2023-08-06T13:42:22;5.03;;;2.70;;
4500;SDS011;2263;54.654;9.410;2023-08-06T13:44:51;2.47;;;2.33;;
4500;SDS011;2263;54.654;9.410;2023-08-06T13:47:18;2.47;;;2.27;;
4500;SDS011;2263;54.654;9.410;2023-08-06T13:49:46;5.00;;;2.67;;
4500;SDS011;2263;54.654;9.410;2023-08-06T13:52:14;2.30;;;2.20;;
4500;SDS011;2263;54.654;9.410;2023-08-06T13:54:49;2.37;;;2.13;;
4500;SDS011;2263;54.654;9.410;2023-08-06T13:57:16;2.30;;;2.10;;
4500;SDS011;2263;54.654;9.410;2023-08-06T13:59:44;2.53;;;1.90;;
4500;SDS011;2263;54.654;9.410;2023-08-06T14:02:12;4.17;;;2.27;;
4500;SDS011;2263;54.654;9.410;2023-08-06T14:04:40;2.07;;;1.87;;
4500;SDS011;2263;54.654;9.410;2023-08-06T14:07:08;2.70;;;2.13;;
4500;SDS011;2263;54.654;9.410;2023-08-06T14:09:36;3.00;;;2.80;;
4500;SDS011;2263;54.654;9.410;2023-08-06T14:12:03;2.33;;;2.13;;
4500;SDS011;2263;54.654;9.410;2023-08-06T14:14:33;2.37;;;2.03;;
4500;SDS011;2263;54.654;9.410;2023-08-06T14:17:01;2.73;;;2.53;;
4500;SDS011;2263;54.654;9.410;2023-08-06T14:19:29;2.27;;;2.07;;
4500;SDS011;2263;54.654;9.410;2023-08-06T14:21:57;2.20;;;2.00;;
4500;SDS011;2263;54.654;9.410;2023-08-06T14:24:25;2.10;;;2.00;;
4500;SDS011;2263;54.654;9.410;2023-08-06T14:26:53;2.53;;;2.33;;
4500;SDS011;2263;54.654;9.410;2023-08-06T14:29:21;3.40;;;2.30;;
4500;SDS011;2263;54.654;9.410;2023-08-06T14:31:49;3.60;;;2.30;;
4500;SDS011;2263;54.654;9.410;2023-08-06T14:34:17;3.27;;;2.27;;
4500;SDS011;2263;54.654;9.410;2023-08-06T14:36:45;2.63;;;2.33;;
4500;SDS011;2263;54.654;9.410;2023-08-06T14:39:13;2.87;;;2.17;;
4500;SDS011;2263;54.654;9.410;2023-08-06T14:41:40;3.83;;;2.60;;
4500;SDS011;2263;54.654;9.410;2023-08-06T14:44:08;2.63;;;2.40;;
4500;SDS011;2263;54.654;9.410;2023-08-06T14:46:36;2.23;;;2.03;;
4500;SDS011;2263;54.654;9.410;2023-08-06T14:49:03;2.50;;;2.03;;
4500;SDS011;2263;54.654;9.410;2023-08-06T14:51:31;2.40;;;2.30;;
4500;SDS011;2263;54.654;9.410;2023-08-06T14:54:02;3.90;;;2.73;;
4500;SDS011;2263;54.654;9.410;2023-08-06T14:56:30;3.03;;;2.73;;
4500;SDS011;2263;54.654;9.410;2023-08-06T14:58:58;4.10;;;2.40;;
4500;SDS011;2263;54.654;9.410;2023-08-06T15:01:25;3.60;;;2.57;;
4500;SDS011;2263;54.654;9.410;2023-08-06T15:03:53;2.70;;;2.37;;
4500;SDS011;2263;54.654;9.410;2023-08-06T15:06:21;3.30;;;2.17;;
4500;SDS011;2263;54.654;9.410;2023-08-06T15:08:49;2.67;;;1.80;;
4500;SDS011;2263;54.654;9.410;2023-08-06T15:11:17;2.33;;;2.13;;
4500;SDS011;2263;54.654;9.410;2023-08-06T15:13:44;1.80;;;1.70;;
4500;SDS011;2263;54.654;9.410;2023-08-06T15:16:12;1.93;;;1.80;;
4500;SDS011;2263;54.654;9.410;2023-08-06T15:18:40;2.77;;;2.00;;
4500;SDS011;2263;54.654;9.410;2023-08-06T15:21:09;1.97;;;1.80;;
4500;SDS011;2263;54.654;9.410;2023-08-06T15:23:37;2.47;;;1.90;;
4500;SDS011;2263;54.654;9.410;2023-08-06T15:26:04;1.93;;;1.73;;
4500;SDS011;2263;54.654;9.410;2023-08-06T15:28:32;4.33;;;1.90;;
4500;SDS011;2263;54.654;9.410;2023-08-06T15:31:00;2.87;;;2.60;;
4500;SDS011;2263;54.654;9.410;2023-08-06T15:33:31;2.10;;;2.00;;
4500;SDS011;2263;54.654;9.410;2023-08-06T15:35:59;2.70;;;2.27;;
4500;SDS011;2263;54.654;9.410;2023-08-06T15:38:27;6.10;;;1.60;;